sensor_id;sensor_type;location;lat;lon;timestamp;temperature;humidity
33269;DHT22;19640;50.944;5.260;2023-05-10T00:00:33;14.60;99.90
33269;DHT22;19640;50.944;5.260;2023-05-10T00:02:59;14.40;99.90
33269;DHT22;19640;50.944;5.260;2023-05-10T00:05:25;14.40;99.90
33269;DHT22;19640;50.944;5.260;2023-05-10T00:07:50;14.30;99.90
33269;DHT22;19640;50.944;5.260;2023-05-10T00:10:16;14.40;99.90
33269;DHT22;19640;50.944;5.260;2023-05-10T00:12:42;14.50;99.90
33269;DHT22;19640;50.944;5.260;2023-05-10T00:15:08;14.40;99.90
33269;DHT22;19640;50.944;5.260;2023-05-10T00:17:34;14.30;99.90
33269;DHT22;19640;50.944;5.260;2023-05-10T00:20:00;14.40;99.90
33269;DHT22;19640;50.944;5.260;2023-05-10T00:22:26;14.40;99.90
33269;DHT22;19640;50.944;5.260;2023-05-10T00:24:51;14.40;99.90
33269;DHT22;19640;50.944;5.260;2023-05-10T00:27:17;14.20;99.90
33269;DHT22;19640;50.944;5.260;2023-05-10T00:29:43;14.20;99.90
33269;DHT22;19640;50.944;5.260;2023-05-10T00:32:08;14.10;99.90
33269;DHT22;19640;50.944;5.260;2023-05-10T00:34:34;14.10;99.90
33269;DHT22;19640;50.944;5.260;2023-05-10T00:37:00;14.00;99.90
33269;DHT22;19640;50.944;5.260;2023-05-10T00:39:26;14.10;99.90
33269;DHT22;19640;50.944;5.260;2023-05-10T00:41:54;14.20;99.90
33269;DHT22;19640;50.944;5.260;2023-05-10T00:44:20;14.20;99.90
33269;DHT22;19640;50.944;5.260;2023-05-10T00:46:47;14.10;99.90
33269;DHT22;19640;50.944;5.260;2023-05-10T00:49:13;14.10;99.90
33269;DHT22;19640;50.944;5.260;2023-05-10T00:51:39;14.10;99.90
33269;DHT22;19640;50.944;5.260;2023-05-10T00:54:09;14.10;99.90
33269;DHT22;19640;50.944;5.260;2023-05-10T00:56:36;14.00;99.90
33269;DHT22;19640;50.944;5.260;2023-05-10T00:59:02;13.90;99.90
33269;DHT22;19640;50.944;5.260;2023-05-10T01:01:28;14.00;99.90
33269;DHT22;19640;50.944;5.260;2023-05-10T01:03:55;14.10;99.90
33269;DHT22;19640;50.944;5.260;2023-05-10T01:06:21;14.10;99.90
33269;DHT22;19640;50.944;5.260;2023-05-10T01:08:47;14.20;99.90
33269;DHT22;19640;50.944;5.260;2023-05-10T01:11:13;14.10;99.90
33269;DHT22;19640;50.944;5.260;2023-05-10T01:13:41;14.00;99.90
33269;DHT22;19640;50.944;5.260;2023-05-10T01:16:08;14.00;99.90
33269;DHT22;19640;50.944;5.260;2023-05-10T01:18:40;13.90;99.90
33269;DHT22;19640;50.944;5.260;2023-05-10T01:24:09;13.80;99.90
33269;DHT22;19640;50.944;5.260;2023-05-10T01:32:30;13.90;99.90
33269;DHT22;19640;50.944;5.260;2023-05-10T01:35:14;13.80;99.90
33269;DHT22;19640;50.944;5.260;2023-05-10T01:40:08;13.70;99.90
33269;DHT22;19640;50.944;5.260;2023-05-10T01:42:45;13.80;99.90
33269;DHT22;19640;50.944;5.260;2023-05-10T01:45:24;13.70;99.90
33269;DHT22;19640;50.944;5.260;2023-05-10T01:48:11;13.70;99.90
33269;DHT22;19640;50.944;5.260;2023-05-10T01:50:40;13.70;99.90
33269;DHT22;19640;50.944;5.260;2023-05-10T01:53:08;13.60;99.90
33269;DHT22;19640;50.944;5.260;2023-05-10T01:55:50;13.70;99.90
33269;DHT22;19640;50.944;5.260;2023-05-10T01:58:21;13.70;99.90
33269;DHT22;19640;50.944;5.260;2023-05-10T02:00:49;13.90;99.90
33269;DHT22;19640;50.944;5.260;2023-05-10T02:03:18;13.90;99.90
33269;DHT22;19640;50.944;5.260;2023-05-10T02:05:48;13.80;99.90
33269;DHT22;19640;50.944;5.260;2023-05-10T02:08:15;13.70;99.90
33269;DHT22;19640;50.944;5.260;2023-05-10T02:10:43;13.70;99.90
33269;DHT22;19640;50.944;5.260;2023-05-10T02:13:11;13.70;99.90
33269;DHT22;19640;50.944;5.260;2023-05-10T02:15:40;13.90;99.90
33269;DHT22;19640;50.944;5.260;2023-05-10T02:18:08;13.90;99.90
33269;DHT22;19640;50.944;5.260;2023-05-10T02:20:35;13.90;99.90
33269;DHT22;19640;50.944;5.260;2023-05-10T02:23:03;13.90;99.90
33269;DHT22;19640;50.944;5.260;2023-05-10T02:25:29;13.90;99.90
33269;DHT22;19640;50.944;5.260;2023-05-10T02:27:57;13.80;99.90
33269;DHT22;19640;50.944;5.260;2023-05-10T02:30:26;13.80;99.90
33269;DHT22;19640;50.944;5.260;2023-05-10T02:32:52;13.70;99.90
33269;DHT22;19640;50.944;5.260;2023-05-10T02:35:19;13.80;99.90
33269;DHT22;19640;50.944;5.260;2023-05-10T02:37:46;13.90;99.90
33269;DHT22;19640;50.944;5.260;2023-05-10T02:40:13;13.90;99.90
33269;DHT22;19640;50.944;5.260;2023-05-10T02:42:41;13.70;99.90
33269;DHT22;19640;50.944;5.260;2023-05-10T02:45:11;13.60;99.90
33269;DHT22;19640;50.944;5.260;2023-05-10T02:47:38;13.80;99.90
33269;DHT22;19640;50.944;5.260;2023-05-10T02:50:04;13.80;99.90
33269;DHT22;19640;50.944;5.260;2023-05-10T02:52:38;13.90;99.90
33269;DHT22;19640;50.944;5.260;2023-05-10T02:55:05;13.90;99.90
33269;DHT22;19640;50.944;5.260;2023-05-10T02:57:35;13.70;99.90
33269;DHT22;19640;50.944;5.260;2023-05-10T03:00:04;13.80;99.90
33269;DHT22;19640;50.944;5.260;2023-05-10T03:02:30;13.90;99.90
33269;DHT22;19640;50.944;5.260;2023-05-10T03:04:56;14.00;99.90
33269;DHT22;19640;50.944;5.260;2023-05-10T03:07:22;14.00;99.90
33269;DHT22;19640;50.944;5.260;2023-05-10T03:09:48;13.90;99.90
33269;DHT22;19640;50.944;5.260;2023-05-10T03:18:12;14.00;99.90
33269;DHT22;19640;50.944;5.260;2023-05-10T03:20:42;13.90;99.90
33269;DHT22;19640;50.944;5.260;2023-05-10T03:25:37;13.90;99.90
33269;DHT22;19640;50.944;5.260;2023-05-10T03:28:04;14.00;99.90
33269;DHT22;19640;50.944;5.260;2023-05-10T03:30:30;14.00;99.90
33269;DHT22;19640;50.944;5.260;2023-05-10T03:32:57;14.00;99.90
33269;DHT22;19640;50.944;5.260;2023-05-10T03:35:23;14.00;99.90
33269;DHT22;19640;50.944;5.260;2023-05-10T03:37:49;14.00;99.90
33269;DHT22;19640;50.944;5.260;2023-05-10T03:40:14;14.10;99.90
33269;DHT22;19640;50.944;5.260;2023-05-10T03:42:41;14.10;99.90
33269;DHT22;19640;50.944;5.260;2023-05-10T03:45:07;14.10;99.90
33269;DHT22;19640;50.944;5.260;2023-05-10T03:47:33;14.10;99.90
33269;DHT22;19640;50.944;5.260;2023-05-10T03:49:59;14.10;99.90
33269;DHT22;19640;50.944;5.260;2023-05-10T03:52:25;14.10;99.90
33269;DHT22;19640;50.944;5.260;2023-05-10T03:54:50;14.10;99.90
33269;DHT22;19640;50.944;5.260;2023-05-10T03:57:16;14.20;99.90
33269;DHT22;19640;50.944;5.260;2023-05-10T03:59:42;14.20;99.90
33269;DHT22;19640;50.944;5.260;2023-05-10T04:02:07;14.10;99.90
33269;DHT22;19640;50.944;5.260;2023-05-10T04:04:33;14.10;99.90
33269;DHT22;19640;50.944;5.260;2023-05-10T04:06:59;14.00;99.90
33269;DHT22;19640;50.944;5.260;2023-05-10T04:09:24;13.90;99.90
33269;DHT22;19640;50.944;5.260;2023-05-10T04:11:50;13.90;99.90
33269;DHT22;19640;50.944;5.260;2023-05-10T04:14:16;14.00;99.90
33269;DHT22;19640;50.944;5.260;2023-05-10T04:16:42;14.10;99.90
33269;DHT22;19640;50.944;5.260;2023-05-10T04:19:07;14.20;99.90
33269;DHT22;19640;50.944;5.260;2023-05-10T04:21:33;14.30;99.90
33269;DHT22;19640;50.944;5.260;2023-05-10T04:23:59;14.40;99.90
33269;DHT22;19640;50.944;5.260;2023-05-10T04:26:24;14.60;99.90
33269;DHT22;19640;50.944;5.260;2023-05-10T04:28:50;14.50;99.90
33269;DHT22;19640;50.944;5.260;2023-05-10T04:31:16;14.40;99.90
33269;DHT22;19640;50.944;5.260;2023-05-10T04:33:42;14.30;99.90
33269;DHT22;19640;50.944;5.260;2023-05-10T04:36:08;14.10;99.90
33269;DHT22;19640;50.944;5.260;2023-05-10T04:38:34;14.00;99.90
33269;DHT22;19640;50.944;5.260;2023-05-10T04:41:06;14.10;99.90
33269;DHT22;19640;50.944;5.260;2023-05-10T04:43:32;13.70;99.90
33269;DHT22;19640;50.944;5.260;2023-05-10T04:45:58;13.80;99.90
33269;DHT22;19640;50.944;5.260;2023-05-10T04:48:24;13.90;99.90
33269;DHT22;19640;50.944;5.260;2023-05-10T04:50:50;14.00;99.90
33269;DHT22;19640;50.944;5.260;2023-05-10T04:53:16;14.00;99.90
33269;DHT22;19640;50.944;5.260;2023-05-10T04:55:41;14.10;99.90
33269;DHT22;19640;50.944;5.260;2023-05-10T04:58:07;14.10;99.90
33269;DHT22;19640;50.944;5.260;2023-05-10T05:00:33;14.10;99.90
33269;DHT22;19640;50.944;5.260;2023-05-10T05:02:59;14.00;99.90
33269;DHT22;19640;50.944;5.260;2023-05-10T05:05:25;13.90;99.90
33269;DHT22;19640;50.944;5.260;2023-05-10T05:07:50;13.90;99.90
33269;DHT22;19640;50.944;5.260;2023-05-10T05:10:16;13.90;99.90
33269;DHT22;19640;50.944;5.260;2023-05-10T05:12:42;13.90;99.90
33269;DHT22;19640;50.944;5.260;2023-05-10T05:15:08;13.90;99.90
33269;DHT22;19640;50.944;5.260;2023-05-10T05:17:35;14.10;99.90
33269;DHT22;19640;50.944;5.260;2023-05-10T05:20:01;14.00;99.90
33269;DHT22;19640;50.944;5.260;2023-05-10T05:22:27;14.00;99.90
33269;DHT22;19640;50.944;5.260;2023-05-10T05:24:57;13.90;99.90
33269;DHT22;19640;50.944;5.260;2023-05-10T05:27:24;13.90;99.90
33269;DHT22;19640;50.944;5.260;2023-05-10T05:29:55;13.90;99.90
33269;DHT22;19640;50.944;5.260;2023-05-10T05:32:21;13.90;99.90
33269;DHT22;19640;50.944;5.260;2023-05-10T05:34:47;13.90;99.90
33269;DHT22;19640;50.944;5.260;2023-05-10T05:37:14;13.90;99.90
33269;DHT22;19640;50.944;5.260;2023-05-10T05:39:41;13.90;99.90
33269;DHT22;19640;50.944;5.260;2023-05-10T05:42:08;14.00;99.90
33269;DHT22;19640;50.944;5.260;2023-05-10T05:44:36;13.90;99.90
33269;DHT22;19640;50.944;5.260;2023-05-10T05:47:02;13.90;99.90
33269;DHT22;19640;50.944;5.260;2023-05-10T05:49:28;14.00;99.90
33269;DHT22;19640;50.944;5.260;2023-05-10T05:51:54;14.10;99.90
33269;DHT22;19640;50.944;5.260;2023-05-10T05:54:20;14.10;99.90
33269;DHT22;19640;50.944;5.260;2023-05-10T05:56:46;14.30;99.90
33269;DHT22;19640;50.944;5.260;2023-05-10T05:59:12;14.20;99.90
33269;DHT22;19640;50.944;5.260;2023-05-10T06:01:38;14.00;99.90
33269;DHT22;19640;50.944;5.260;2023-05-10T06:04:04;13.90;99.90
33269;DHT22;19640;50.944;5.260;2023-05-10T06:06:30;13.80;99.90
33269;DHT22;19640;50.944;5.260;2023-05-10T06:08:56;13.90;99.90
33269;DHT22;19640;50.944;5.260;2023-05-10T06:11:22;14.00;99.90
33269;DHT22;19640;50.944;5.260;2023-05-10T06:13:48;14.10;99.90
33269;DHT22;19640;50.944;5.260;2023-05-10T06:16:13;14.20;99.90
33269;DHT22;19640;50.944;5.260;2023-05-10T06:18:39;14.30;99.90
33269;DHT22;19640;50.944;5.260;2023-05-10T06:21:05;14.40;99.90
33269;DHT22;19640;50.944;5.260;2023-05-10T06:23:30;14.30;99.90
33269;DHT22;19640;50.944;5.260;2023-05-10T06:25:56;14.30;99.90
33269;DHT22;19640;50.944;5.260;2023-05-10T06:28:22;14.00;99.90
33269;DHT22;19640;50.944;5.260;2023-05-10T06:30:47;13.90;99.90
33269;DHT22;19640;50.944;5.260;2023-05-10T06:33:13;14.00;99.90
33269;DHT22;19640;50.944;5.260;2023-05-10T06:35:39;13.70;99.90
33269;DHT22;19640;50.944;5.260;2023-05-10T06:38:05;13.70;99.90
33269;DHT22;19640;50.944;5.260;2023-05-10T06:40:31;13.90;99.90
33269;DHT22;19640;50.944;5.260;2023-05-10T06:42:56;13.90;99.90
33269;DHT22;19640;50.944;5.260;2023-05-10T06:45:22;14.00;99.90
33269;DHT22;19640;50.944;5.260;2023-05-10T06:47:48;14.10;99.90
33269;DHT22;19640;50.944;5.260;2023-05-10T06:50:13;14.00;99.90
33269;DHT22;19640;50.944;5.260;2023-05-10T06:52:39;13.90;99.90
33269;DHT22;19640;50.944;5.260;2023-05-10T06:55:05;13.90;99.90
33269;DHT22;19640;50.944;5.260;2023-05-10T06:57:31;14.00;99.90
33269;DHT22;19640;50.944;5.260;2023-05-10T06:59:58;14.10;99.90
33269;DHT22;19640;50.944;5.260;2023-05-10T07:02:24;14.30;99.90
33269;DHT22;19640;50.944;5.260;2023-05-10T07:04:49;14.10;99.90
33269;DHT22;19640;50.944;5.260;2023-05-10T07:07:17;14.10;99.90
33269;DHT22;19640;50.944;5.260;2023-05-10T07:09:42;14.20;99.90
33269;DHT22;19640;50.944;5.260;2023-05-10T07:12:08;14.00;99.90
33269;DHT22;19640;50.944;5.260;2023-05-10T07:14:34;14.00;99.90
33269;DHT22;19640;50.944;5.260;2023-05-10T07:17:00;13.80;99.90
33269;DHT22;19640;50.944;5.260;2023-05-10T07:19:25;13.80;99.90
33269;DHT22;19640;50.944;5.260;2023-05-10T07:21:51;13.90;99.90
33269;DHT22;19640;50.944;5.260;2023-05-10T07:24:17;14.00;99.90
33269;DHT22;19640;50.944;5.260;2023-05-10T07:26:43;14.10;99.90
33269;DHT22;19640;50.944;5.260;2023-05-10T07:29:08;14.20;99.90
33269;DHT22;19640;50.944;5.260;2023-05-10T07:31:35;14.30;99.90
33269;DHT22;19640;50.944;5.260;2023-05-10T07:34:01;14.40;99.90
33269;DHT22;19640;50.944;5.260;2023-05-10T07:36:26;14.30;99.90
33269;DHT22;19640;50.944;5.260;2023-05-10T07:38:53;14.30;99.90
33269;DHT22;19640;50.944;5.260;2023-05-10T07:41:18;14.30;99.90
33269;DHT22;19640;50.944;5.260;2023-05-10T07:43:44;14.40;99.90
33269;DHT22;19640;50.944;5.260;2023-05-10T07:46:09;14.60;99.90
33269;DHT22;19640;50.944;5.260;2023-05-10T07:48:36;14.60;99.90
33269;DHT22;19640;50.944;5.260;2023-05-10T07:51:02;14.70;99.90
33269;DHT22;19640;50.944;5.260;2023-05-10T07:53:28;14.60;99.90
33269;DHT22;19640;50.944;5.260;2023-05-10T07:55:57;14.70;99.90
33269;DHT22;19640;50.944;5.260;2023-05-10T07:58:26;14.40;99.90
33269;DHT22;19640;50.944;5.260;2023-05-10T08:00:52;14.40;99.90
33269;DHT22;19640;50.944;5.260;2023-05-10T08:03:18;14.40;99.90
33269;DHT22;19640;50.944;5.260;2023-05-10T08:05:43;14.20;99.90
33269;DHT22;19640;50.944;5.260;2023-05-10T08:08:09;14.20;99.90
33269;DHT22;19640;50.944;5.260;2023-05-10T08:10:35;14.30;99.90
33269;DHT22;19640;50.944;5.260;2023-05-10T08:13:00;14.40;99.90
33269;DHT22;19640;50.944;5.260;2023-05-10T08:15:26;14.00;99.90
33269;DHT22;19640;50.944;5.260;2023-05-10T08:17:52;14.00;99.90
33269;DHT22;19640;50.944;5.260;2023-05-10T08:20:18;13.80;99.90
33269;DHT22;19640;50.944;5.260;2023-05-10T08:22:47;13.80;99.90
33269;DHT22;19640;50.944;5.260;2023-05-10T08:25:13;13.60;99.90
33269;DHT22;19640;50.944;5.260;2023-05-10T08:27:38;13.60;99.90
33269;DHT22;19640;50.944;5.260;2023-05-10T08:30:05;13.70;99.90
33269;DHT22;19640;50.944;5.260;2023-05-10T08:32:31;13.70;99.90
33269;DHT22;19640;50.944;5.260;2023-05-10T08:34:57;13.60;99.90
33269;DHT22;19640;50.944;5.260;2023-05-10T08:37:23;13.80;99.90
33269;DHT22;19640;50.944;5.260;2023-05-10T08:39:49;13.90;99.90
33269;DHT22;19640;50.944;5.260;2023-05-10T08:42:19;13.80;99.90
33269;DHT22;19640;50.944;5.260;2023-05-10T08:44:48;13.40;99.90
33269;DHT22;19640;50.944;5.260;2023-05-10T08:47:16;13.40;99.90
33269;DHT22;19640;50.944;5.260;2023-05-10T08:49:44;13.50;99.90
33269;DHT22;19640;50.944;5.260;2023-05-10T08:52:13;13.70;99.90
33269;DHT22;19640;50.944;5.260;2023-05-10T08:54:41;13.80;99.90
33269;DHT22;19640;50.944;5.260;2023-05-10T08:57:07;13.60;99.90
33269;DHT22;19640;50.944;5.260;2023-05-10T08:59:33;13.60;99.90
33269;DHT22;19640;50.944;5.260;2023-05-10T09:01:59;13.50;99.90
33269;DHT22;19640;50.944;5.260;2023-05-10T09:04:26;13.60;99.90
33269;DHT22;19640;50.944;5.260;2023-05-10T09:06:52;13.50;99.90
33269;DHT22;19640;50.944;5.260;2023-05-10T09:09:18;13.30;99.90
33269;DHT22;19640;50.944;5.260;2023-05-10T09:11:44;13.50;99.90
33269;DHT22;19640;50.944;5.260;2023-05-10T09:14:11;13.50;99.90
33269;DHT22;19640;50.944;5.260;2023-05-10T09:16:37;13.70;99.90
33269;DHT22;19640;50.944;5.260;2023-05-10T09:19:03;13.90;99.90
33269;DHT22;19640;50.944;5.260;2023-05-10T09:21:30;13.90;99.90
33269;DHT22;19640;50.944;5.260;2023-05-10T09:23:56;13.70;99.90
33269;DHT22;19640;50.944;5.260;2023-05-10T09:26:23;13.70;99.90
33269;DHT22;19640;50.944;5.260;2023-05-10T09:28:59;14.10;99.90
33269;DHT22;19640;50.944;5.260;2023-05-10T09:34:21;14.40;99.90
33269;DHT22;19640;50.944;5.260;2023-05-10T09:36:53;14.70;99.90
33269;DHT22;19640;50.944;5.260;2023-05-10T09:39:19;14.80;99.90
33269;DHT22;19640;50.944;5.260;2023-05-10T09:41:45;14.70;99.90
33269;DHT22;19640;50.944;5.260;2023-05-10T09:44:11;14.80;99.90
33269;DHT22;19640;50.944;5.260;2023-05-10T09:46:36;15.00;99.90
33269;DHT22;19640;50.944;5.260;2023-05-10T09:49:02;15.20;99.90
33269;DHT22;19640;50.944;5.260;2023-05-10T09:51:28;15.10;99.90
33269;DHT22;19640;50.944;5.260;2023-05-10T09:54:11;15.00;99.90
33269;DHT22;19640;50.944;5.260;2023-05-10T09:56:37;14.60;99.90
33269;DHT22;19640;50.944;5.260;2023-05-10T09:59:06;14.90;99.90
33269;DHT22;19640;50.944;5.260;2023-05-10T10:01:33;15.10;99.90
33269;DHT22;19640;50.944;5.260;2023-05-10T10:03:58;15.00;99.90
33269;DHT22;19640;50.944;5.260;2023-05-10T10:06:24;14.70;99.90
33269;DHT22;19640;50.944;5.260;2023-05-10T10:08:51;14.70;99.90
33269;DHT22;19640;50.944;5.260;2023-05-10T10:11:17;14.70;99.90
33269;DHT22;19640;50.944;5.260;2023-05-10T10:13:42;14.50;99.90
33269;DHT22;19640;50.944;5.260;2023-05-10T10:16:08;14.90;99.90
33269;DHT22;19640;50.944;5.260;2023-05-10T10:18:36;14.90;99.90
33269;DHT22;19640;50.944;5.260;2023-05-10T10:21:08;15.10;99.90
33269;DHT22;19640;50.944;5.260;2023-05-10T10:23:37;14.90;99.90
33269;DHT22;19640;50.944;5.260;2023-05-10T10:26:04;14.90;99.90
33269;DHT22;19640;50.944;5.260;2023-05-10T10:31:46;15.10;99.90
33269;DHT22;19640;50.944;5.260;2023-05-10T10:34:38;15.30;99.90
33269;DHT22;19640;50.944;5.260;2023-05-10T10:37:06;15.10;99.90
33269;DHT22;19640;50.944;5.260;2023-05-10T10:39:32;15.20;99.90
33269;DHT22;19640;50.944;5.260;2023-05-10T10:41:59;15.00;99.90
33269;DHT22;19640;50.944;5.260;2023-05-10T10:44:26;15.10;99.90
33269;DHT22;19640;50.944;5.260;2023-05-10T10:49:24;15.10;99.90
33269;DHT22;19640;50.944;5.260;2023-05-10T10:55:12;15.00;99.90
33269;DHT22;19640;50.944;5.260;2023-05-10T11:02:52;15.50;99.90
33269;DHT22;19640;50.944;5.260;2023-05-10T11:07:54;15.40;99.90
33269;DHT22;19640;50.944;5.260;2023-05-10T11:10:23;15.70;99.90
33269;DHT22;19640;50.944;5.260;2023-05-10T11:13:08;15.50;99.90
33269;DHT22;19640;50.944;5.260;2023-05-10T11:15:40;15.30;99.90
33269;DHT22;19640;50.944;5.260;2023-05-10T11:18:17;15.20;99.90
33269;DHT22;19640;50.944;5.260;2023-05-10T11:20:44;15.30;99.90
33269;DHT22;19640;50.944;5.260;2023-05-10T11:23:15;15.20;99.90
33269;DHT22;19640;50.944;5.260;2023-05-10T11:25:44;15.30;99.90
33269;DHT22;19640;50.944;5.260;2023-05-10T11:28:10;15.20;99.90
33269;DHT22;19640;50.944;5.260;2023-05-10T11:30:38;15.50;99.90
33269;DHT22;19640;50.944;5.260;2023-05-10T11:33:05;15.40;99.90
33269;DHT22;19640;50.944;5.260;2023-05-10T11:35:37;15.60;99.90
33269;DHT22;19640;50.944;5.260;2023-05-10T11:38:06;15.70;99.90
33269;DHT22;19640;50.944;5.260;2023-05-10T11:40:31;15.80;99.90
33269;DHT22;19640;50.944;5.260;2023-05-10T11:42:57;16.20;99.90
33269;DHT22;19640;50.944;5.260;2023-05-10T11:45:26;16.40;99.90
33269;DHT22;19640;50.944;5.260;2023-05-10T11:47:53;16.40;99.90
33269;DHT22;19640;50.944;5.260;2023-05-10T11:50:19;16.70;99.90
33269;DHT22;19640;50.944;5.260;2023-05-10T11:52:45;16.40;99.90
33269;DHT22;19640;50.944;5.260;2023-05-10T11:55:10;16.30;99.90
33269;DHT22;19640;50.944;5.260;2023-05-10T11:57:37;16.30;99.90
33269;DHT22;19640;50.944;5.260;2023-05-10T12:00:04;16.40;99.90
33269;DHT22;19640;50.944;5.260;2023-05-10T12:02:30;16.20;99.90
33269;DHT22;19640;50.944;5.260;2023-05-10T12:04:56;16.20;99.90
33269;DHT22;19640;50.944;5.260;2023-05-10T12:07:22;16.40;99.90
33269;DHT22;19640;50.944;5.260;2023-05-10T12:10:07;16.40;99.90
33269;DHT22;19640;50.944;5.260;2023-05-10T12:12:46;16.50;99.90
33269;DHT22;19640;50.944;5.260;2023-05-10T12:15:22;16.40;99.90
33269;DHT22;19640;50.944;5.260;2023-05-10T12:17:49;16.50;99.90
33269;DHT22;19640;50.944;5.260;2023-05-10T12:20:22;16.70;99.90
33269;DHT22;19640;50.944;5.260;2023-05-10T12:22:53;16.50;99.90
33269;DHT22;19640;50.944;5.260;2023-05-10T12:25:20;16.10;99.90
33269;DHT22;19640;50.944;5.260;2023-05-10T12:27:57;15.90;99.90
33269;DHT22;19640;50.944;5.260;2023-05-10T12:30:24;16.20;99.90
33269;DHT22;19640;50.944;5.260;2023-05-10T12:32:51;16.30;99.90
33269;DHT22;19640;50.944;5.260;2023-05-10T12:35:17;16.60;99.90
33269;DHT22;19640;50.944;5.260;2023-05-10T12:37:47;16.60;99.90
33269;DHT22;19640;50.944;5.260;2023-05-10T12:40:14;16.80;99.90
33269;DHT22;19640;50.944;5.260;2023-05-10T12:42:40;17.00;99.90
33269;DHT22;19640;50.944;5.260;2023-05-10T12:45:07;17.00;99.90
33269;DHT22;19640;50.944;5.260;2023-05-10T12:47:33;16.90;99.90
33269;DHT22;19640;50.944;5.260;2023-05-10T12:50:00;16.90;99.90
33269;DHT22;19640;50.944;5.260;2023-05-10T12:52:27;16.90;99.90
33269;DHT22;19640;50.944;5.260;2023-05-10T12:54:53;17.00;99.90
33269;DHT22;19640;50.944;5.260;2023-05-10T12:57:20;16.80;99.90
33269;DHT22;19640;50.944;5.260;2023-05-10T12:59:46;16.90;99.90
33269;DHT22;19640;50.944;5.260;2023-05-10T13:02:12;17.20;99.90
33269;DHT22;19640;50.944;5.260;2023-05-10T13:04:38;17.30;99.90
33269;DHT22;19640;50.944;5.260;2023-05-10T13:07:06;16.90;99.90
33269;DHT22;19640;50.944;5.260;2023-05-10T13:09:32;17.00;99.90
33269;DHT22;19640;50.944;5.260;2023-05-10T13:11:58;16.80;99.90
33269;DHT22;19640;50.944;5.260;2023-05-10T13:14:24;16.80;99.90
33269;DHT22;19640;50.944;5.260;2023-05-10T13:16:50;17.00;99.90
33269;DHT22;19640;50.944;5.260;2023-05-10T13:19:17;17.20;99.90
33269;DHT22;19640;50.944;5.260;2023-05-10T13:21:43;17.40;99.90
33269;DHT22;19640;50.944;5.260;2023-05-10T13:24:10;17.40;99.90
33269;DHT22;19640;50.944;5.260;2023-05-10T13:26:36;17.40;99.90
33269;DHT22;19640;50.944;5.260;2023-05-10T13:29:03;17.50;99.90
33269;DHT22;19640;50.944;5.260;2023-05-10T13:31:28;17.30;99.90
33269;DHT22;19640;50.944;5.260;2023-05-10T13:33:55;17.20;99.90
33269;DHT22;19640;50.944;5.260;2023-05-10T13:36:20;17.10;99.90
33269;DHT22;19640;50.944;5.260;2023-05-10T13:38:46;17.00;99.90
33269;DHT22;19640;50.944;5.260;2023-05-10T13:41:12;17.30;99.90
33269;DHT22;19640;50.944;5.260;2023-05-10T13:43:38;17.30;99.90
33269;DHT22;19640;50.944;5.260;2023-05-10T13:46:03;17.40;99.90
33269;DHT22;19640;50.944;5.260;2023-05-10T13:48:29;17.40;99.90
33269;DHT22;19640;50.944;5.260;2023-05-10T13:50:54;17.40;99.90
33269;DHT22;19640;50.944;5.260;2023-05-10T13:53:20;17.10;99.90
33269;DHT22;19640;50.944;5.260;2023-05-10T13:55:46;17.10;99.90
33269;DHT22;19640;50.944;5.260;2023-05-10T13:58:12;16.90;99.90
33269;DHT22;19640;50.944;5.260;2023-05-10T14:00:38;17.20;99.90
33269;DHT22;19640;50.944;5.260;2023-05-10T14:03:04;17.40;99.90
33269;DHT22;19640;50.944;5.260;2023-05-10T14:05:30;17.30;99.90
33269;DHT22;19640;50.944;5.260;2023-05-10T14:07:56;17.70;99.90
33269;DHT22;19640;50.944;5.260;2023-05-10T14:10:22;17.90;99.90
33269;DHT22;19640;50.944;5.260;2023-05-10T14:12:49;17.80;99.90
33269;DHT22;19640;50.944;5.260;2023-05-10T14:15:15;17.50;99.90
33269;DHT22;19640;50.944;5.260;2023-05-10T14:17:41;17.70;99.90
33269;DHT22;19640;50.944;5.260;2023-05-10T14:20:08;17.70;99.90
33269;DHT22;19640;50.944;5.260;2023-05-10T14:22:34;18.00;99.90
33269;DHT22;19640;50.944;5.260;2023-05-10T14:25:00;17.70;99.90
33269;DHT22;19640;50.944;5.260;2023-05-10T14:27:26;17.80;99.90
33269;DHT22;19640;50.944;5.260;2023-05-10T14:29:51;18.00;99.90
33269;DHT22;19640;50.944;5.260;2023-05-10T14:32:18;18.30;99.90
33269;DHT22;19640;50.944;5.260;2023-05-10T14:34:44;18.30;99.90
33269;DHT22;19640;50.944;5.260;2023-05-10T14:37:11;18.10;99.90
33269;DHT22;19640;50.944;5.260;2023-05-10T14:39:37;18.10;99.90
33269;DHT22;19640;50.944;5.260;2023-05-10T14:42:03;18.10;99.90
33269;DHT22;19640;50.944;5.260;2023-05-10T14:44:29;18.00;99.90
33269;DHT22;19640;50.944;5.260;2023-05-10T14:46:55;18.40;99.90
33269;DHT22;19640;50.944;5.260;2023-05-10T14:49:22;18.40;99.90
33269;DHT22;19640;50.944;5.260;2023-05-10T14:51:48;18.70;99.90
33269;DHT22;19640;50.944;5.260;2023-05-10T14:54:14;18.70;99.90
33269;DHT22;19640;50.944;5.260;2023-05-10T14:56:39;18.60;99.90
33269;DHT22;19640;50.944;5.260;2023-05-10T14:59:07;18.70;99.90
33269;DHT22;19640;50.944;5.260;2023-05-10T15:01:33;19.00;99.90
33269;DHT22;19640;50.944;5.260;2023-05-10T15:04:00;18.50;99.90
33269;DHT22;19640;50.944;5.260;2023-05-10T15:06:34;18.10;99.90
33269;DHT22;19640;50.944;5.260;2023-05-10T15:09:00;18.10;99.90
33269;DHT22;19640;50.944;5.260;2023-05-10T15:11:26;18.30;99.90
33269;DHT22;19640;50.944;5.260;2023-05-10T15:13:52;17.90;99.90
33269;DHT22;19640;50.944;5.260;2023-05-10T15:16:18;18.00;99.90
33269;DHT22;19640;50.944;5.260;2023-05-10T15:18:44;17.70;99.90
33269;DHT22;19640;50.944;5.260;2023-05-10T15:21:10;17.60;99.90
33269;DHT22;19640;50.944;5.260;2023-05-10T15:23:35;17.60;99.90
33269;DHT22;19640;50.944;5.260;2023-05-10T15:26:01;17.50;99.90
33269;DHT22;19640;50.944;5.260;2023-05-10T15:28:28;17.50;99.90
33269;DHT22;19640;50.944;5.260;2023-05-10T15:30:54;17.70;99.90
33269;DHT22;19640;50.944;5.260;2023-05-10T15:33:20;17.90;99.90
33269;DHT22;19640;50.944;5.260;2023-05-10T15:35:46;18.00;99.90
33269;DHT22;19640;50.944;5.260;2023-05-10T15:38:12;18.20;99.90
33269;DHT22;19640;50.944;5.260;2023-05-10T15:40:37;18.40;99.90
33269;DHT22;19640;50.944;5.260;2023-05-10T15:43:03;18.40;99.90
33269;DHT22;19640;50.944;5.260;2023-05-10T15:45:30;18.30;99.90
33269;DHT22;19640;50.944;5.260;2023-05-10T15:47:57;18.00;99.90
33269;DHT22;19640;50.944;5.260;2023-05-10T15:50:22;17.50;99.90
33269;DHT22;19640;50.944;5.260;2023-05-10T15:52:48;17.70;99.90
33269;DHT22;19640;50.944;5.260;2023-05-10T15:55:14;17.70;99.90
33269;DHT22;19640;50.944;5.260;2023-05-10T15:57:40;17.90;99.90
33269;DHT22;19640;50.944;5.260;2023-05-10T16:00:08;17.80;99.90
33269;DHT22;19640;50.944;5.260;2023-05-10T16:02:34;17.60;99.90
33269;DHT22;19640;50.944;5.260;2023-05-10T16:05:00;17.90;99.90
33269;DHT22;19640;50.944;5.260;2023-05-10T16:07:26;18.20;99.90